createdAt,value
2023-05-04T00:01:02.389Z,7.12
2023-05-04T00:03:28.965Z,7.02
2023-05-04T00:05:55.614Z,7.09
2023-05-04T00:08:22.085Z,7.03
2023-05-04T00:10:48.612Z,6.72
2023-05-04T00:13:15.197Z,6.66
2023-05-04T00:15:41.946Z,6.69
2023-05-04T00:18:08.664Z,6.75
2023-05-04T00:20:35.147Z,6.74
2023-05-04T00:23:01.636Z,6.79
2023-05-04T00:25:28.128Z,6.74
2023-05-04T00:27:54.616Z,6.80
2023-05-04T00:30:21.158Z,6.73
2023-05-04T00:32:47.689Z,6.68
2023-05-04T00:35:14.227Z,6.65
2023-05-04T00:37:40.927Z,6.48
2023-05-04T00:40:08.960Z,6.41
2023-05-04T00:42:35.467Z,6.49
2023-05-04T00:45:01.966Z,6.44
2023-05-04T00:47:29.945Z,6.41
2023-05-04T00:49:56.577Z,6.56
2023-05-04T00:52:24.266Z,6.35
2023-05-04T00:54:52.044Z,6.47
2023-05-04T00:57:18.519Z,6.26
2023-05-04T00:59:45.018Z,6.05
2023-05-04T01:02:11.678Z,5.81
2023-05-04T01:04:38.297Z,6.03
2023-05-04T01:07:25.025Z,6.22
2023-05-04T01:10:02.104Z,6.31
2023-05-04T01:12:41.569Z,6.20
2023-05-04T01:15:09.827Z,6.07
2023-05-04T01:17:36.563Z,6.01
2023-05-04T01:20:04.161Z,5.96
2023-05-04T01:22:30.902Z,5.80
2023-05-04T01:24:57.376Z,5.74
2023-05-04T01:27:23.824Z,5.80
2023-05-04T01:29:53.233Z,6.11
2023-05-04T01:32:21.076Z,6.17
2023-05-04T01:34:48.004Z,5.98
2023-05-04T01:37:14.795Z,5.89
2023-05-04T01:39:41.274Z,5.91
2023-05-04T01:42:07.773Z,5.79
2023-05-04T01:44:34.379Z,6.03
2023-05-04T01:47:00.925Z,5.64
2023-05-04T01:49:27.373Z,5.62
2023-05-04T01:51:53.820Z,5.44
2023-05-04T01:54:20.267Z,5.29
2023-05-04T01:56:46.789Z,5.70
2023-05-04T01:59:13.273Z,5.63
2023-05-04T02:01:39.804Z,5.75
2023-05-04T02:04:06.338Z,5.62
2023-05-04T02:06:33.014Z,5.38
2023-05-04T02:08:59.630Z,5.70
2023-05-04T02:11:26.256Z,5.71
2023-05-04T02:13:53.834Z,5.74
2023-05-04T02:16:20.394Z,5.72
2023-05-04T02:18:46.953Z,5.51
2023-05-04T02:21:13.757Z,5.44
2023-05-04T02:23:40.206Z,5.17
2023-05-04T02:26:06.730Z,5.21
2023-05-04T02:28:33.194Z,5.18
2023-05-04T02:30:59.704Z,5.11
2023-05-04T02:33:26.208Z,5.12
2023-05-04T02:35:52.647Z,5.37
2023-05-04T02:38:19.148Z,5.37
2023-05-04T02:40:45.582Z,5.35
2023-05-04T02:43:12.100Z,5.16
2023-05-04T02:45:38.653Z,4.99
2023-05-04T02:48:05.492Z,4.95
2023-05-04T02:50:32.015Z,4.99
2023-05-04T02:52:58.562Z,5.20
2023-05-04T02:55:25.031Z,5.10
2023-05-04T02:57:51.483Z,5.16
2023-05-04T03:00:18.194Z,5.04
2023-05-04T03:02:44.676Z,4.91
2023-05-04T03:05:11.356Z,4.94
2023-05-04T03:07:37.826Z,5.02
2023-05-04T03:10:04.805Z,5.03
2023-05-04T03:12:31.608Z,5.16
2023-05-04T03:14:58.112Z,5.14
2023-05-04T03:17:24.584Z,4.96
2023-05-04T03:19:51.048Z,5.01
2023-05-04T03:22:17.560Z,4.68
2023-05-04T03:24:44.119Z,4.83
2023-05-04T03:27:10.657Z,4.82
2023-05-04T03:29:37.105Z,4.61
2023-05-04T03:32:03.721Z,5.08
2023-05-04T03:34:30.236Z,4.93
2023-05-04T03:36:58.243Z,5.00
2023-05-04T03:39:24.727Z,4.82
2023-05-04T03:41:52.601Z,4.79
2023-05-04T03:44:19.145Z,4.87
2023-05-04T03:46:45.585Z,5.09
2023-05-04T03:49:12.070Z,5.14
2023-05-04T03:51:38.503Z,5.10
2023-05-04T03:54:05.061Z,5.34
2023-05-04T03:56:31.545Z,5.15
2023-05-04T03:58:58.015Z,5.18
2023-05-04T04:01:25.322Z,5.18
2023-05-04T04:03:51.886Z,5.21
2023-05-04T04:06:18.405Z,5.03
2023-05-04T04:08:44.865Z,5.31
2023-05-04T04:11:11.315Z,5.68
2023-05-04T04:13:37.775Z,5.77
2023-05-04T04:16:04.716Z,5.88
2023-05-04T04:18:31.494Z,5.51
2023-05-04T04:20:58.018Z,5.35
2023-05-04T04:23:25.401Z,5.63
2023-05-04T04:25:53.795Z,6.14
2023-05-04T04:28:20.308Z,6.12
2023-05-04T04:30:46.765Z,6.33
2023-05-04T04:33:13.237Z,6.30
2023-05-04T04:35:39.843Z,6.33
2023-05-04T04:38:07.019Z,6.40
2023-05-04T04:40:33.452Z,6.02
2023-05-04T04:42:59.985Z,6.01
2023-05-04T04:45:26.441Z,6.06
2023-05-04T04:47:53.036Z,6.40
2023-05-04T04:50:19.524Z,6.22
2023-05-04T04:52:46.389Z,6.52
2023-05-04T04:55:13.375Z,6.56
2023-05-04T04:57:39.866Z,6.55
2023-05-04T05:00:10.216Z,6.66
2023-05-04T05:02:37.033Z,6.91
2023-05-04T05:05:03.969Z,6.86
2023-05-04T05:07:30.714Z,7.18
2023-05-04T05:09:57.227Z,7.08
2023-05-04T05:12:23.729Z,6.99
2023-05-04T05:14:50.908Z,7.19
2023-05-04T05:17:18.103Z,7.18
2023-05-04T05:19:44.641Z,7.36
2023-05-04T05:22:11.088Z,7.28
2023-05-04T05:24:37.578Z,7.41
2023-05-04T05:27:04.038Z,7.63
2023-05-04T05:29:30.976Z,7.65
2023-05-04T05:31:57.414Z,7.86
2023-05-04T05:34:23.879Z,8.04
2023-05-04T05:36:50.338Z,8.27
2023-05-04T05:39:16.912Z,8.38
2023-05-04T05:41:43.383Z,8.38
2023-05-04T05:44:11.720Z,8.67
2023-05-04T05:46:39.564Z,8.72
2023-05-04T05:49:07.416Z,8.95
2023-05-04T05:51:34.028Z,8.86
2023-05-04T05:54:00.782Z,9.14
2023-05-04T05:56:27.228Z,9.31
2023-05-04T05:58:53.773Z,9.60
2023-05-04T06:01:20.245Z,9.85
2023-05-04T06:03:47.022Z,9.17
2023-05-04T06:06:13.807Z,9.84
2023-05-04T06:08:41.532Z,9.96
2023-05-04T06:11:07.962Z,10.35
2023-05-04T06:13:34.476Z,10.45
2023-05-04T06:16:01.033Z,10.74
2023-05-04T06:18:27.551Z,10.81
2023-05-04T06:21:00.959Z,11.08
2023-05-04T06:23:28.800Z,11.48
2023-05-04T06:25:55.312Z,11.40
2023-05-04T06:28:21.902Z,11.78
2023-05-04T06:30:48.635Z,11.59
2023-05-04T06:33:15.279Z,11.78
2023-05-04T06:35:42.108Z,12.18
2023-05-04T06:38:08.604Z,12.12
2023-05-04T06:40:35.376Z,12.50
2023-05-04T06:43:02.061Z,12.42
2023-05-04T06:45:28.759Z,12.46
2023-05-04T06:47:55.243Z,12.65
2023-05-04T06:50:24.008Z,12.63
2023-05-04T06:52:50.793Z,12.62
2023-05-04T06:55:17.389Z,12.93
2023-05-04T06:57:43.855Z,12.89
2023-05-04T07:00:10.820Z,12.89
2023-05-04T07:02:37.251Z,12.98
2023-05-04T07:05:03.978Z,13.29
2023-05-04T07:07:30.450Z,13.10
2023-05-04T07:09:56.922Z,13.08
2023-05-04T07:12:23.377Z,13.45
2023-05-04T07:14:50.060Z,12.78
2023-05-04T07:17:16.604Z,12.52
2023-05-04T07:19:43.078Z,13.24
2023-05-04T07:22:09.771Z,12.68
2023-05-04T07:24:36.231Z,13.41
2023-05-04T07:27:03.212Z,13.37
2023-05-04T07:29:29.824Z,13.05
2023-05-04T07:31:56.274Z,14.31
2023-05-04T07:34:27.644Z,13.89
2023-05-04T07:37:00.722Z,13.91
2023-05-04T07:39:27.178Z,13.74
2023-05-04T07:41:54.411Z,13.44
2023-05-04T07:44:20.960Z,13.53
2023-05-04T07:46:47.415Z,13.86
2023-05-04T07:49:13.949Z,14.39
2023-05-04T07:51:40.420Z,14.72
2023-05-04T07:54:06.986Z,15.57
2023-05-04T07:56:33.470Z,15.40
2023-05-04T07:58:59.972Z,15.39
2023-05-04T08:01:26.435Z,15.36
2023-05-04T08:03:52.907Z,15.29
2023-05-04T08:06:19.333Z,15.62
2023-05-04T08:08:46.592Z,16.62
2023-05-04T08:11:20.673Z,16.37
2023-05-04T08:13:50.719Z,15.63
2023-05-04T08:16:17.589Z,16.06
2023-05-04T08:18:44.493Z,15.66
2023-05-04T08:21:10.955Z,15.69
2023-05-04T08:23:37.520Z,15.22
2023-05-04T08:26:04.813Z,15.04
2023-05-04T08:28:35.306Z,15.42
2023-05-04T08:31:03.272Z,16.29
2023-05-04T08:33:30.492Z,16.99
2023-05-04T08:35:59.550Z,17.74
2023-05-04T08:38:26.688Z,15.97
2023-05-04T08:40:54.929Z,16.79
2023-05-04T08:43:22.199Z,17.87
2023-05-04T08:45:51.726Z,18.48
2023-05-04T08:48:18.998Z,17.50
2023-05-04T08:50:46.184Z,17.58
2023-05-04T08:53:13.966Z,18.02
2023-05-04T08:55:42.476Z,16.66
2023-05-04T08:58:10.964Z,16.67
2023-05-04T09:00:38.826Z,17.74
2023-05-04T09:03:10.520Z,17.20
2023-05-04T09:05:38.380Z,17.40
2023-05-04T09:08:05.649Z,18.01
2023-05-04T09:10:33.370Z,18.33
2023-05-04T09:13:00.007Z,18.72
2023-05-04T09:15:26.619Z,18.31
2023-05-04T09:18:03.914Z,17.97
2023-05-04T09:20:31.519Z,16.95
2023-05-04T09:23:09.154Z,17.11
2023-05-04T09:25:55.273Z,17.03
2023-05-04T09:28:37.461Z,17.57
2023-05-04T09:31:04.498Z,17.16
2023-05-04T09:33:32.038Z,17.46
2023-05-04T09:36:15.926Z,18.07
2023-05-04T09:38:42.530Z,17.88
2023-05-04T09:41:09.409Z,17.87
2023-05-04T09:43:43.941Z,18.02
2023-05-04T09:46:20.126Z,17.92
2023-05-04T09:48:57.168Z,17.17
2023-05-04T09:51:25.943Z,17.59
2023-05-04T09:53:52.804Z,18.23
2023-05-04T09:56:38.744Z,18.01
2023-05-04T09:59:05.918Z,18.67
2023-05-04T10:01:32.556Z,17.16
2023-05-04T10:03:59.208Z,18.38
2023-05-04T10:06:28.906Z,18.72
2023-05-04T10:08:56.507Z,19.31
2023-05-04T10:11:25.797Z,18.68
2023-05-04T10:13:55.890Z,18.86
2023-05-04T10:16:38.827Z,19.84
2023-05-04T10:19:22.674Z,20.48
2023-05-04T10:22:10.882Z,20.52
2023-05-04T10:24:57.179Z,19.03
2023-05-04T10:27:57.330Z,20.65
2023-05-04T10:30:23.955Z,20.42
2023-05-04T10:32:57.726Z,19.40
2023-05-04T10:35:24.666Z,17.59
2023-05-04T10:37:54.460Z,18.12
2023-05-04T10:40:36.776Z,17.89
2023-05-04T10:43:04.052Z,18.49
2023-05-04T10:45:37.267Z,17.54
2023-05-04T10:48:05.197Z,18.81
2023-05-04T10:50:46.082Z,18.33
2023-05-04T10:53:14.679Z,18.22
2023-05-04T10:55:48.718Z,18.78
2023-05-04T10:58:19.158Z,19.62
2023-05-04T11:00:48.101Z,18.43
2023-05-04T11:03:15.530Z,19.04
2023-05-04T11:05:43.395Z,18.42
2023-05-04T11:08:19.879Z,18.36
2023-05-04T11:10:48.225Z,18.62
2023-05-04T11:13:16.261Z,18.15
2023-05-04T11:15:47.203Z,17.32
2023-05-04T11:18:13.823Z,17.21
2023-05-04T11:20:40.830Z,18.08
2023-05-04T11:23:10.305Z,17.75
2023-05-04T11:25:37.680Z,18.30
2023-05-04T11:28:04.777Z,17.65
2023-05-04T11:30:33.499Z,17.92
2023-05-04T11:33:00.947Z,18.21
2023-05-04T11:35:27.684Z,17.93
2023-05-04T11:37:55.472Z,17.36
2023-05-04T11:40:25.175Z,17.94
2023-05-04T11:42:55.403Z,17.91
2023-05-04T11:45:24.213Z,18.08
2023-05-04T11:47:52.096Z,18.75
2023-05-04T11:50:20.765Z,18.48
2023-05-04T11:52:47.872Z,18.89
2023-05-04T11:55:30.819Z,19.40
2023-05-04T11:58:07.237Z,19.00
2023-05-04T12:00:41.699Z,19.86
2023-05-04T12:03:10.128Z,19.19
2023-05-04T12:05:37.571Z,19.31
2023-05-04T12:08:04.556Z,18.95
2023-05-04T12:10:33.495Z,18.81
2023-05-04T12:13:00.124Z,19.12
2023-05-04T12:15:36.475Z,18.19
2023-05-04T12:18:03.571Z,17.77
2023-05-04T12:20:30.902Z,18.23
2023-05-04T12:22:57.902Z,19.23
2023-05-04T12:25:25.027Z,19.06
2023-05-04T12:27:51.764Z,20.02
2023-05-04T12:30:18.476Z,20.49
2023-05-04T12:32:45.213Z,19.67
2023-05-04T12:35:11.942Z,18.52
2023-05-04T12:37:38.404Z,19.19
2023-05-04T12:40:21.005Z,19.50
2023-05-04T12:42:54.847Z,18.54
2023-05-04T12:45:22.699Z,18.73
2023-05-04T12:47:51.222Z,19.05
2023-05-04T12:50:18.052Z,18.65
2023-05-04T12:52:44.686Z,18.81
2023-05-04T12:55:11.289Z,17.88
2023-05-04T12:57:37.891Z,17.69
2023-05-04T13:00:07.228Z,18.94
2023-05-04T13:02:34.255Z,19.55
2023-05-04T13:05:00.904Z,18.85
2023-05-04T13:07:27.699Z,18.46
2023-05-04T13:09:54.167Z,18.30
2023-05-04T13:12:20.646Z,19.26
2023-05-04T13:14:47.631Z,21.07
2023-05-04T13:17:15.112Z,20.55
2023-05-04T13:19:41.700Z,20.15
2023-05-04T13:22:08.288Z,19.40
2023-05-04T13:24:34.964Z,18.74
2023-05-04T13:27:01.570Z,18.05
2023-05-04T13:29:28.057Z,18.29
2023-05-04T13:31:54.646Z,18.49
2023-05-04T13:34:21.220Z,18.22
2023-05-04T13:36:48.138Z,19.16
2023-05-04T13:39:14.910Z,18.40
2023-05-04T13:41:41.471Z,17.69
2023-05-04T13:44:08.211Z,17.59
2023-05-04T13:46:36.202Z,18.39
2023-05-04T13:49:03.111Z,18.26
2023-05-04T13:51:29.839Z,17.65
2023-05-04T13:53:56.281Z,18.11
2023-05-04T13:56:23.368Z,18.39
2023-05-04T13:58:49.994Z,17.80
2023-05-04T14:01:16.511Z,17.74
2023-05-04T14:03:43.093Z,17.74
2023-05-04T14:06:09.624Z,17.39
2023-05-04T14:08:36.176Z,17.39
2023-05-04T14:11:03.000Z,17.70
2023-05-04T14:13:29.470Z,18.20
2023-05-04T14:15:55.910Z,18.19
2023-05-04T14:18:22.408Z,17.06
2023-05-04T14:20:49.054Z,17.19
2023-05-04T14:23:16.172Z,16.40
2023-05-04T14:25:44.022Z,17.19
2023-05-04T14:28:10.853Z,18.24
2023-05-04T14:30:37.319Z,17.84
2023-05-04T14:33:04.028Z,18.17
2023-05-04T14:35:31.724Z,18.22
2023-05-04T14:37:58.180Z,17.39
2023-05-04T14:40:24.608Z,17.71
2023-05-04T14:42:51.328Z,17.86
2023-05-04T14:45:17.956Z,17.56
2023-05-04T14:47:44.548Z,17.07
2023-05-04T14:50:12.166Z,17.08
2023-05-04T14:52:38.885Z,17.59
2023-05-04T14:55:09.036Z,17.64
2023-05-04T14:57:35.617Z,16.86
2023-05-04T15:00:07.846Z,17.10
2023-05-04T15:02:35.888Z,16.81
2023-05-04T15:05:03.017Z,16.31
2023-05-04T15:07:29.516Z,16.27
2023-05-04T15:09:56.126Z,16.71
2023-05-04T15:12:22.876Z,16.77
2023-05-04T15:14:49.367Z,17.04
2023-05-04T15:17:17.225Z,16.50
2023-05-04T15:19:45.328Z,16.18
2023-05-04T15:22:11.797Z,16.67
2023-05-04T15:24:41.804Z,16.69
2023-05-04T15:27:08.275Z,17.94
2023-05-04T15:29:34.738Z,17.76
2023-05-04T15:32:01.295Z,17.32
2023-05-04T15:34:27.812Z,16.88
2023-05-04T15:36:55.050Z,16.61
2023-05-04T15:39:21.899Z,16.55
2023-05-04T15:41:48.359Z,16.75
2023-05-04T15:44:15.314Z,17.33
2023-05-04T15:46:43.262Z,17.19
2023-05-04T15:49:09.864Z,16.88
2023-05-04T15:51:36.547Z,16.43
2023-05-04T15:54:03.842Z,16.25
2023-05-04T15:56:30.273Z,16.75
2023-05-04T15:58:56.974Z,16.81
2023-05-04T16:01:23.476Z,16.43
2023-05-04T16:03:50.173Z,16.66
2023-05-04T16:06:17.959Z,16.42
2023-05-04T16:08:44.689Z,16.18
2023-05-04T16:11:11.334Z,15.94
2023-05-04T16:13:37.859Z,16.30
2023-05-04T16:16:04.768Z,16.14
2023-05-04T16:18:31.684Z,15.92
2023-05-04T16:20:58.304Z,15.95
2023-05-04T16:23:24.845Z,15.68
2023-05-04T16:25:51.875Z,16.15
2023-05-04T16:28:18.434Z,16.22
2023-05-04T16:30:45.757Z,16.31
2023-05-04T16:33:12.857Z,16.06
2023-05-04T16:35:39.377Z,16.20
2023-05-04T16:38:06.278Z,16.11
2023-05-04T16:40:33.051Z,15.50
2023-05-04T16:42:59.796Z,16.35
2023-05-04T16:45:31.231Z,16.42
2023-05-04T16:47:58.911Z,16.38
2023-05-04T16:50:25.567Z,15.98
2023-05-04T16:52:52.023Z,16.52
2023-05-04T16:55:19.124Z,15.89
2023-05-04T16:57:46.084Z,15.66
2023-05-04T17:00:13.644Z,14.89
2023-05-04T17:02:40.304Z,15.43
2023-05-04T17:05:10.109Z,14.82
2023-05-04T17:07:39.588Z,15.39
2023-05-04T17:10:07.819Z,15.60
2023-05-04T17:12:34.865Z,15.29
2023-05-04T17:15:01.571Z,15.14
2023-05-04T17:17:28.469Z,15.33
2023-05-04T17:19:55.208Z,15.15
2023-05-04T17:22:21.994Z,15.34
2023-05-04T17:24:49.450Z,15.10
2023-05-04T17:27:18.606Z,15.12
2023-05-04T17:29:57.534Z,15.12
2023-05-04T17:35:25.805Z,14.83
2023-05-04T17:38:03.752Z,14.56
2023-05-04T17:40:30.687Z,14.60
2023-05-04T17:43:00.349Z,14.97
2023-05-04T17:45:27.022Z,14.12
2023-05-04T17:47:53.839Z,14.85
2023-05-04T17:50:23.832Z,15.02
2023-05-04T17:52:56.988Z,14.84
2023-05-04T17:55:27.673Z,15.09
2023-05-04T17:57:54.577Z,14.16
2023-05-04T18:00:21.523Z,14.25
2023-05-04T18:02:48.142Z,14.36
2023-05-04T18:05:14.988Z,14.36
2023-05-04T18:07:41.626Z,13.82
2023-05-04T18:10:08.534Z,13.92
2023-05-04T18:12:38.039Z,13.62
2023-05-04T18:15:08.281Z,14.03
2023-05-04T18:17:37.688Z,14.65
2023-05-04T18:20:06.861Z,14.27
2023-05-04T18:22:34.158Z,13.96
2023-05-04T18:25:01.421Z,13.89
2023-05-04T18:27:34.779Z,13.94
2023-05-04T18:30:02.134Z,14.03
2023-05-04T18:32:28.685Z,13.55
2023-05-04T18:34:58.027Z,13.73
2023-05-04T18:37:25.516Z,13.63
2023-05-04T18:39:52.023Z,13.79
2023-05-04T18:42:18.584Z,13.67
2023-05-04T18:44:45.159Z,13.86
2023-05-04T18:47:11.682Z,13.72
2023-05-04T18:49:38.265Z,13.70
2023-05-04T18:52:05.060Z,13.46
2023-05-04T18:54:34.605Z,12.99
2023-05-04T18:57:01.212Z,13.17
2023-05-04T18:59:27.770Z,13.19
2023-05-04T19:01:54.392Z,13.05
2023-05-04T19:04:20.917Z,13.10
2023-05-04T19:06:47.762Z,12.81
2023-05-04T19:09:15.092Z,12.97
2023-05-04T19:11:41.733Z,12.96
2023-05-04T19:14:08.253Z,13.28
2023-05-04T19:16:35.090Z,13.10
2023-05-04T19:19:01.608Z,12.77
2023-05-04T19:21:28.578Z,13.23
2023-05-04T19:23:55.129Z,12.97
2023-05-04T19:26:22.036Z,13.13
2023-05-04T19:28:48.631Z,13.16
2023-05-04T19:31:15.588Z,13.18
2023-05-04T19:33:48.457Z,12.78
2023-05-04T19:36:16.948Z,13.16
2023-05-04T19:38:43.786Z,12.56
2023-05-04T19:41:10.563Z,12.69
2023-05-04T19:43:38.869Z,12.84
2023-05-04T19:46:05.749Z,12.85
2023-05-04T19:48:33.038Z,12.46
2023-05-04T19:50:59.558Z,12.56
2023-05-04T19:53:26.164Z,12.52
2023-05-04T19:55:52.921Z,12.69
2023-05-04T19:58:19.436Z,12.58
2023-05-04T20:00:45.973Z,12.30
2023-05-04T20:03:12.488Z,12.48
2023-05-04T20:05:39.045Z,12.72
2023-05-04T20:08:05.588Z,12.96
2023-05-04T20:10:32.623Z,12.89
2023-05-04T20:12:59.179Z,12.73
2023-05-04T20:15:26.078Z,12.28
2023-05-04T20:17:53.045Z,12.73
2023-05-04T20:20:21.510Z,12.79
2023-05-04T20:22:51.984Z,12.63
2023-05-04T20:25:20.117Z,12.58
2023-05-04T20:27:48.697Z,12.77
2023-05-04T20:30:15.702Z,12.37
2023-05-04T20:32:42.732Z,12.78
2023-05-04T20:35:09.554Z,12.54
2023-05-04T20:37:36.386Z,12.17
2023-05-04T20:40:02.965Z,12.41
2023-05-04T20:42:29.410Z,12.41
2023-05-04T20:44:56.084Z,12.30
2023-05-04T20:47:22.655Z,12.78
2023-05-04T20:49:49.355Z,12.49
2023-05-04T20:52:16.074Z,12.26
2023-05-04T20:54:44.907Z,12.26
2023-05-04T20:57:11.501Z,12.29
2023-05-04T20:59:38.187Z,12.18
2023-05-04T21:02:05.006Z,12.49
2023-05-04T21:04:31.555Z,12.36
2023-05-04T21:06:58.247Z,12.90
2023-05-04T21:09:26.378Z,12.20
2023-05-04T21:11:52.936Z,12.19
2023-05-04T21:14:19.985Z,12.39
2023-05-04T21:16:46.518Z,12.07
2023-05-04T21:19:13.028Z,12.36
2023-05-04T21:21:41.376Z,12.42
2023-05-04T21:24:14.477Z,12.00
2023-05-04T21:26:41.700Z,12.05
2023-05-04T21:29:13.120Z,12.40
2023-05-04T21:31:40.667Z,12.42
2023-05-04T21:34:07.799Z,11.95
2023-05-04T21:36:34.726Z,12.29
2023-05-04T21:39:01.405Z,12.38
2023-05-04T21:41:27.983Z,12.24
2023-05-04T21:43:54.808Z,12.07
2023-05-04T21:46:21.438Z,12.33
2023-05-04T21:48:48.409Z,12.81
2023-05-04T21:51:15.000Z,12.65
2023-05-04T21:53:44.777Z,12.00
2023-05-04T21:56:11.837Z,12.37
2023-05-04T21:58:40.701Z,12.59
2023-05-04T22:01:08.260Z,11.93
2023-05-04T22:03:35.618Z,12.26
2023-05-04T22:06:02.202Z,12.20
2023-05-04T22:08:29.117Z,12.19
2023-05-04T22:10:57.177Z,12.49
2023-05-04T22:13:23.743Z,12.20
2023-05-04T22:15:50.944Z,12.12
2023-05-04T22:18:18.198Z,12.21
2023-05-04T22:20:45.297Z,11.88
2023-05-04T22:23:12.086Z,12.15
2023-05-04T22:25:39.091Z,12.54
2023-05-04T22:28:05.896Z,12.49
2023-05-04T22:30:32.589Z,12.02
2023-05-04T22:32:59.177Z,11.74
2023-05-04T22:35:25.698Z,12.16
2023-05-04T22:37:52.247Z,12.08
2023-05-04T22:40:18.959Z,11.85
2023-05-04T22:42:45.690Z,12.22
2023-05-04T22:45:14.122Z,11.82
2023-05-04T22:47:44.311Z,11.80
2023-05-04T22:50:11.151Z,11.96
2023-05-04T22:52:38.241Z,11.90
2023-05-04T22:55:05.828Z,12.29
2023-05-04T22:57:33.405Z,11.60
2023-05-04T22:59:59.866Z,11.51
2023-05-04T23:02:36.299Z,11.99
2023-05-04T23:05:04.831Z,11.77
2023-05-04T23:07:31.632Z,11.82
2023-05-04T23:09:58.245Z,12.21
2023-05-04T23:12:25.568Z,11.94
2023-05-04T23:14:55.025Z,11.91
2023-05-04T23:17:22.056Z,11.57
2023-05-04T23:19:48.586Z,12.10
2023-05-04T23:22:15.126Z,11.80
2023-05-04T23:24:42.301Z,12.07
2023-05-04T23:27:08.835Z,11.60
2023-05-04T23:29:35.575Z,12.08
2023-05-04T23:32:02.088Z,11.81
2023-05-04T23:34:28.574Z,11.27
2023-05-04T23:36:55.201Z,11.52
2023-05-04T23:39:22.225Z,11.30
2023-05-04T23:41:49.169Z,11.33
2023-05-04T23:44:16.557Z,11.16
2023-05-04T23:46:43.770Z,11.71
2023-05-04T23:49:10.323Z,11.87
2023-05-04T23:51:36.840Z,11.17
2023-05-04T23:54:03.435Z,11.20
2023-05-04T23:56:31.291Z,11.41
2023-05-04T23:58:57.787Z,11.14
